createdAt,value
2023-02-12T00:01:32.780Z,21.83
2023-02-12T00:04:01.796Z,21.80
2023-02-12T00:06:30.788Z,21.83
2023-02-12T00:08:59.180Z,21.53
2023-02-12T00:11:29.855Z,22.23
2023-02-12T00:13:58.982Z,22.10
2023-02-12T00:16:30.127Z,21.93
2023-02-12T00:19:00.125Z,22.80
2023-02-12T00:21:30.160Z,23.03
2023-02-12T00:23:58.885Z,23.20
2023-02-12T00:26:27.662Z,23.13
2023-02-12T00:28:56.490Z,23.10
2023-02-12T00:31:26.846Z,22.57
2023-02-12T00:34:01.618Z,23.90
2023-02-12T00:36:32.067Z,23.70
2023-02-12T00:39:02.181Z,22.47
2023-02-12T00:41:31.640Z,23.00
2023-02-12T00:44:00.004Z,24.93
2023-02-12T00:46:28.917Z,26.07
2023-02-12T00:48:58.751Z,25.70
2023-02-12T00:51:27.573Z,27.00
2023-02-12T00:53:55.934Z,26.40
2023-02-12T00:56:25.734Z,27.40
2023-02-12T00:58:54.104Z,26.17
2023-02-12T01:01:22.909Z,26.00
2023-02-12T01:03:51.774Z,26.43
2023-02-12T01:06:22.706Z,25.93
2023-02-12T01:08:52.497Z,26.27
2023-02-12T01:11:22.061Z,25.30
2023-02-12T01:13:50.470Z,26.73
2023-02-12T01:16:21.722Z,26.33
2023-02-12T01:18:54.448Z,26.77
2023-02-12T01:21:29.125Z,25.97
2023-02-12T01:23:58.434Z,27.83
2023-02-12T01:26:29.160Z,26.67
2023-02-12T01:29:01.425Z,26.87
2023-02-12T01:31:32.824Z,26.53
2023-02-12T01:34:02.346Z,27.33
2023-02-12T01:36:32.356Z,27.60
2023-02-12T01:39:02.843Z,27.60
2023-02-12T01:41:33.443Z,27.77
2023-02-12T01:44:08.402Z,28.13
2023-02-12T01:46:37.627Z,27.03
2023-02-12T01:49:10.474Z,29.47
2023-02-12T01:51:42.415Z,28.00
2023-02-12T01:54:14.336Z,27.03
2023-02-12T01:56:44.061Z,27.53
2023-02-12T01:59:13.687Z,28.70
2023-02-12T02:01:42.323Z,28.87
2023-02-12T02:04:14.936Z,28.50
2023-02-12T02:06:52.375Z,30.33
2023-02-12T02:09:21.109Z,29.63
2023-02-12T02:12:07.739Z,29.30
2023-02-12T02:14:36.962Z,29.33
2023-02-12T02:17:25.519Z,30.70
2023-02-12T02:20:22.880Z,30.10
2023-02-12T02:23:09.510Z,29.40
2023-02-12T02:26:12.552Z,29.23
2023-02-12T02:29:05.692Z,29.47
2023-02-12T02:31:42.147Z,29.77
2023-02-12T02:34:16.371Z,30.97
2023-02-12T02:37:00.210Z,30.50
2023-02-12T02:39:39.209Z,29.07
2023-02-12T02:42:13.938Z,31.23
2023-02-12T02:44:47.777Z,32.03
2023-02-12T02:47:21.163Z,30.53
2023-02-12T02:49:56.226Z,29.60
2023-02-12T02:52:31.499Z,31.83
2023-02-12T02:55:06.838Z,29.60
2023-02-12T02:57:40.551Z,30.83
2023-02-12T03:00:15.792Z,31.40
2023-02-12T03:02:52.035Z,33.30
2023-02-12T03:05:26.014Z,33.13
2023-02-12T03:08:00.865Z,34.53
2023-02-12T03:10:34.951Z,32.43
2023-02-12T03:13:08.387Z,32.20
2023-02-12T03:15:40.566Z,31.10
2023-02-12T03:18:14.700Z,31.43
2023-02-12T03:20:48.845Z,32.33
2023-02-12T03:23:24.037Z,33.00
2023-02-12T03:25:59.141Z,33.33
2023-02-12T03:28:30.994Z,32.50
2023-02-12T03:31:08.949Z,32.70
2023-02-12T03:33:46.322Z,34.00
2023-02-12T03:36:23.953Z,34.10
2023-02-12T03:38:56.815Z,33.23
2023-02-12T03:41:32.534Z,32.40
2023-02-12T03:44:07.868Z,34.07
2023-02-12T03:46:44.115Z,33.90
2023-02-12T03:49:22.432Z,34.47
2023-02-12T03:51:51.590Z,35.70
2023-02-12T03:54:22.786Z,34.73
2023-02-12T03:56:55.822Z,35.87
2023-02-12T03:59:26.432Z,36.77
2023-02-12T04:01:57.206Z,35.93
2023-02-12T04:04:28.109Z,36.63
2023-02-12T04:06:58.011Z,36.87
2023-02-12T04:09:28.813Z,36.93
2023-02-12T04:12:11.145Z,37.57
2023-02-12T04:14:51.159Z,36.47
2023-02-12T04:17:28.230Z,38.13
2023-02-12T04:20:09.817Z,37.13
2023-02-12T04:22:48.175Z,36.37
2023-02-12T04:25:26.747Z,39.03
2023-02-12T04:28:02.704Z,39.43
2023-02-12T04:30:52.442Z,37.27
2023-02-12T04:33:40.564Z,37.73
2023-02-12T04:36:25.470Z,39.63
2023-02-12T04:39:41.126Z,39.03
2023-02-12T04:42:13.632Z,37.37
2023-02-12T04:50:42.585Z,38.93
2023-02-12T04:59:12.951Z,35.93
2023-02-12T05:19:10.171Z,49.37
2023-02-12T05:22:18.873Z,40.90
2023-02-12T05:33:09.602Z,40.80
2023-02-12T05:36:49.287Z,40.97
2023-02-12T05:43:01.571Z,40.07
2023-02-12T06:34:50.315Z,41.93
2023-02-12T06:54:46.630Z,42.17
2023-02-12T06:57:15.622Z,41.50
2023-02-12T06:59:44.446Z,42.30
2023-02-12T07:02:13.215Z,43.07
2023-02-12T07:04:41.678Z,42.47
2023-02-12T07:07:10.439Z,42.10
2023-02-12T07:09:40.160Z,44.00
2023-02-12T07:12:09.064Z,39.83
2023-02-12T07:14:37.601Z,40.17
2023-02-12T07:17:08.902Z,42.47
2023-02-12T07:19:38.031Z,40.37
2023-02-12T07:22:06.942Z,40.30
2023-02-12T07:24:35.271Z,40.20
2023-02-12T07:27:06.126Z,39.80
2023-02-12T07:29:34.680Z,40.67
2023-02-12T07:32:03.441Z,40.83
2023-02-12T07:34:32.164Z,40.63
2023-02-12T07:37:01.414Z,40.30
2023-02-12T07:39:29.705Z,42.33
2023-02-12T07:41:58.606Z,41.93
2023-02-12T07:44:28.340Z,39.77
2023-02-12T07:46:57.094Z,41.23
2023-02-12T07:49:25.643Z,39.40
2023-02-12T07:51:57.188Z,40.50
2023-02-12T07:54:26.023Z,43.57
2023-02-12T07:56:55.169Z,43.03
2023-02-12T07:59:24.204Z,40.47
2023-02-12T08:01:54.854Z,44.43
2023-02-12T08:04:25.956Z,45.60
2023-02-12T08:06:56.358Z,41.57
2023-02-12T08:09:28.083Z,47.27
2023-02-12T08:11:56.393Z,40.80
2023-02-12T08:14:25.232Z,42.27
2023-02-12T08:16:55.019Z,43.70
2023-02-12T08:19:26.365Z,43.10
2023-02-12T08:21:56.607Z,40.27
2023-02-12T08:24:26.524Z,40.27
2023-02-12T08:26:55.146Z,42.23
2023-02-12T08:29:26.230Z,41.07
2023-02-12T08:31:59.485Z,40.57
2023-02-12T08:34:29.887Z,40.97
2023-02-12T08:36:59.192Z,42.03
2023-02-12T08:39:30.167Z,42.73
2023-02-12T08:42:00.292Z,41.67
2023-02-12T08:44:28.980Z,61.80
2023-02-12T08:46:59.155Z,53.03
2023-02-12T08:49:29.387Z,41.57
2023-02-12T08:52:02.126Z,38.33
2023-02-12T08:54:31.625Z,36.17
2023-02-12T08:57:02.088Z,34.80
2023-02-12T08:59:31.418Z,34.90
2023-02-12T09:02:01.917Z,35.47
2023-02-12T09:04:31.338Z,37.67
2023-02-12T09:06:59.690Z,35.70
2023-02-12T09:09:28.391Z,33.83
2023-02-12T09:11:57.275Z,35.97
2023-02-12T09:14:25.918Z,36.43
2023-02-12T09:16:54.642Z,38.07
2023-02-12T09:19:25.083Z,37.77
2023-02-12T09:21:55.991Z,41.60
2023-02-12T09:24:25.040Z,37.97
2023-02-12T09:26:53.843Z,39.50
2023-02-12T09:29:22.150Z,38.90
2023-02-12T09:31:50.575Z,35.43
2023-02-12T09:34:19.746Z,39.33
2023-02-12T09:36:49.511Z,36.10
2023-02-12T09:39:18.084Z,37.17
2023-02-12T09:42:28.087Z,36.43
2023-02-12T09:45:04.541Z,38.77
2023-02-12T09:47:40.770Z,37.47
2023-02-12T09:50:28.042Z,34.37
2023-02-12T09:52:59.243Z,38.67
2023-02-12T09:55:31.359Z,35.07
2023-02-12T09:58:02.258Z,36.10
2023-02-12T10:00:32.407Z,35.77
2023-02-12T10:03:05.938Z,35.10
2023-02-12T10:05:42.095Z,34.83
2023-02-12T10:08:25.610Z,34.37
2023-02-12T10:11:00.416Z,33.37
2023-02-12T10:13:40.213Z,33.50
2023-02-12T10:16:16.069Z,32.43
2023-02-12T10:19:00.579Z,31.83
2023-02-12T10:21:43.627Z,29.03
2023-02-12T10:24:36.925Z,30.77
2023-02-12T10:27:12.657Z,28.60
2023-02-12T10:29:43.776Z,24.73
2023-02-12T10:32:21.703Z,25.90
2023-02-12T10:34:52.876Z,26.77
2023-02-12T10:37:29.842Z,26.47
2023-02-12T10:40:04.796Z,25.63
2023-02-12T10:42:40.194Z,25.57
2023-02-12T10:45:15.374Z,27.13
2023-02-12T10:47:45.564Z,27.27
2023-02-12T10:50:24.068Z,26.67
2023-02-12T10:52:57.461Z,26.27
2023-02-12T10:55:30.366Z,25.40
2023-02-12T10:58:01.153Z,30.00
2023-02-12T11:00:32.729Z,42.93
2023-02-12T11:03:22.023Z,28.03
2023-02-12T11:05:51.209Z,28.90
2023-02-12T11:08:31.993Z,28.03
2023-02-12T11:11:10.279Z,27.33
2023-02-12T11:13:40.946Z,28.80
2023-02-12T11:16:10.794Z,28.17
2023-02-12T11:18:39.796Z,27.63
2023-02-12T11:21:11.490Z,27.90
2023-02-12T11:23:41.388Z,29.27
2023-02-12T11:26:26.838Z,27.73
2023-02-12T11:28:57.225Z,28.77
2023-02-12T11:31:28.493Z,28.53
2023-02-12T11:34:15.578Z,27.10
2023-02-12T11:36:47.480Z,27.43
2023-02-12T11:39:22.874Z,27.63
2023-02-12T11:41:56.499Z,26.27
2023-02-12T11:44:28.613Z,26.03
2023-02-12T11:47:02.171Z,26.63
2023-02-12T11:49:34.668Z,28.57
2023-02-12T11:52:05.208Z,27.33
2023-02-12T11:54:40.212Z,25.87
2023-02-12T11:57:34.739Z,24.73
2023-02-12T12:00:12.878Z,26.33
2023-02-12T12:02:59.143Z,26.43
2023-02-12T12:05:33.086Z,25.37
2023-02-12T12:08:09.516Z,26.00
2023-02-12T12:10:43.603Z,26.43
2023-02-12T12:13:18.779Z,25.43
2023-02-12T12:16:09.369Z,25.60
2023-02-12T12:19:04.509Z,26.43
2023-02-12T12:21:40.785Z,24.73
2023-02-12T12:24:15.454Z,25.47
2023-02-12T12:26:50.641Z,23.97
2023-02-12T12:29:24.207Z,23.27
2023-02-12T12:32:00.491Z,23.30
2023-02-12T12:34:29.929Z,24.23
2023-02-12T12:37:16.524Z,25.53
2023-02-12T12:39:59.843Z,26.77
2023-02-12T12:43:04.735Z,24.87
2023-02-12T12:46:00.465Z,26.03
2023-02-12T12:48:46.589Z,25.57
2023-02-12T12:51:30.636Z,25.00
2023-02-12T12:54:12.107Z,24.47
2023-02-12T12:56:50.318Z,22.97
2023-02-12T13:00:02.401Z,22.57
2023-02-12T13:03:02.405Z,24.30
2023-02-12T13:06:00.117Z,22.90
2023-02-12T13:08:40.949Z,24.47
2023-02-12T13:11:24.497Z,24.07
2023-02-12T13:14:02.938Z,24.37
2023-02-12T13:16:36.943Z,24.13
2023-02-12T13:19:14.262Z,20.73
2023-02-12T13:21:52.897Z,22.33
2023-02-12T13:24:28.917Z,19.83
2023-02-12T13:27:01.774Z,19.20
2023-02-12T13:29:36.104Z,19.10
2023-02-12T13:32:10.055Z,19.87
2023-02-12T13:34:40.755Z,20.43
2023-02-12T13:37:18.714Z,21.33
2023-02-12T13:39:50.341Z,21.17
2023-02-12T13:42:40.910Z,21.17
2023-02-12T13:45:22.978Z,21.03
2023-02-12T13:48:02.630Z,19.95
2023-02-12T13:50:42.578Z,20.58
2023-02-12T13:53:23.409Z,21.73
2023-02-12T13:56:08.020Z,21.40
2023-02-12T13:58:52.042Z,21.03
2023-02-12T14:01:39.985Z,22.00
2023-02-12T14:04:29.914Z,20.03
2023-02-12T14:07:02.075Z,20.63
2023-02-12T14:09:37.752Z,19.27
2023-02-12T14:12:10.515Z,19.13
2023-02-12T14:14:45.572Z,20.03
2023-02-12T14:17:43.769Z,19.80
2023-02-12T14:20:24.267Z,19.25
2023-02-12T14:23:26.657Z,22.10
2023-02-12T14:26:06.101Z,19.60
2023-02-12T14:28:48.809Z,17.80
2023-02-12T14:31:38.811Z,19.67
2023-02-12T14:34:49.240Z,18.60
2023-02-12T14:37:38.527Z,18.70
2023-02-12T14:40:45.689Z,20.80
2023-02-12T14:44:00.290Z,19.42
2023-02-12T14:46:46.245Z,17.57
2023-02-12T14:49:26.737Z,17.80
2023-02-12T14:51:59.502Z,17.70
2023-02-12T14:54:34.068Z,18.40
2023-02-12T14:57:07.889Z,19.95
2023-02-12T14:59:42.529Z,18.37
2023-02-12T15:02:18.519Z,19.75
2023-02-12T15:04:47.082Z,19.25
2023-02-12T15:07:24.013Z,20.10
2023-02-12T15:09:57.289Z,19.88
2023-02-12T15:12:32.726Z,20.50
2023-02-12T15:15:14.586Z,18.45
2023-02-12T15:17:54.589Z,19.10
2023-02-12T15:20:26.202Z,19.80
2023-02-12T15:22:56.241Z,20.40
2023-02-12T15:25:27.287Z,19.25
2023-02-12T15:27:59.482Z,19.05
2023-02-12T15:30:31.502Z,20.48
2023-02-12T15:33:05.855Z,19.17
2023-02-12T15:35:37.215Z,19.48
2023-02-12T15:38:08.222Z,18.17
2023-02-12T15:40:36.554Z,19.65
2023-02-12T15:43:08.739Z,19.23
2023-02-12T15:45:39.814Z,19.20
2023-02-12T15:48:14.520Z,20.02
2023-02-12T15:50:55.026Z,20.40
2023-02-12T15:53:27.381Z,19.48
2023-02-12T15:55:56.469Z,18.40
2023-02-12T15:58:28.022Z,17.52
2023-02-12T16:01:02.890Z,19.35
2023-02-12T16:03:33.854Z,19.65
2023-02-12T16:06:11.387Z,19.63
2023-02-12T16:08:40.647Z,18.80
2023-02-12T16:11:14.772Z,18.08
2023-02-12T16:13:47.219Z,18.57
2023-02-12T16:16:24.560Z,18.67
2023-02-12T16:19:08.343Z,19.33
2023-02-12T16:21:39.292Z,20.65
2023-02-12T16:24:26.890Z,19.27
2023-02-12T16:26:56.205Z,20.85
2023-02-12T16:29:26.018Z,17.33
2023-02-12T16:31:59.644Z,17.67
2023-02-12T16:34:31.976Z,18.10
2023-02-12T16:37:00.346Z,18.93
2023-02-12T16:40:10.113Z,20.27
2023-02-12T16:42:38.715Z,28.97
2023-02-12T16:45:36.226Z,27.77
2023-02-12T16:48:14.464Z,27.27
2023-02-12T16:50:49.101Z,26.03
2023-02-12T16:53:43.509Z,21.63
2023-02-12T16:56:18.538Z,18.97
2023-02-12T16:58:48.560Z,17.80
2023-02-12T17:01:19.661Z,17.73
2023-02-12T17:03:51.471Z,18.53
2023-02-12T17:06:21.693Z,20.10
2023-02-12T17:08:50.453Z,18.53
2023-02-12T17:11:19.276Z,21.93
2023-02-12T17:13:49.972Z,29.27
2023-02-12T17:16:29.798Z,23.77
2023-02-12T17:19:01.282Z,23.03
2023-02-12T17:21:32.162Z,22.17
2023-02-12T17:24:00.642Z,25.33
2023-02-12T17:26:29.236Z,28.03
2023-02-12T17:29:05.164Z,28.57
2023-02-12T17:31:34.753Z,34.23
2023-02-12T17:34:05.806Z,31.37
2023-02-12T17:36:34.856Z,27.87
2023-02-12T17:39:06.337Z,24.97
2023-02-12T17:41:35.663Z,21.97
2023-02-12T17:44:04.854Z,49.53
2023-02-12T17:46:34.215Z,26.27
2023-02-12T17:49:05.785Z,26.80
2023-02-12T17:51:44.670Z,30.80
2023-02-12T17:54:14.386Z,24.30
2023-02-12T17:56:43.197Z,26.70
2023-02-12T17:59:11.619Z,27.70
2023-02-12T18:01:41.399Z,28.17
2023-02-12T18:04:11.170Z,28.07
2023-02-12T18:06:39.554Z,30.90
2023-02-12T18:09:07.859Z,28.57
2023-02-12T18:11:38.365Z,23.90
2023-02-12T18:14:06.958Z,21.47
2023-02-12T18:16:36.512Z,22.00
2023-02-12T18:19:05.962Z,26.80
2023-02-12T18:21:35.844Z,36.07
2023-02-12T18:24:05.370Z,32.60
2023-02-12T18:26:33.922Z,36.13
2023-02-12T18:29:03.197Z,23.57
2023-02-12T18:31:32.155Z,21.20
2023-02-12T18:34:01.077Z,22.63
2023-02-12T18:36:29.529Z,22.37
2023-02-12T18:39:01.402Z,21.03
2023-02-12T18:41:33.462Z,22.20
2023-02-12T18:44:01.789Z,19.43
2023-02-12T18:46:33.372Z,20.87
2023-02-12T18:49:03.725Z,23.77
2023-02-12T18:51:36.599Z,21.53
2023-02-12T18:54:12.577Z,23.00
2023-02-12T18:56:44.013Z,22.50
2023-02-12T18:59:16.104Z,22.93
2023-02-12T19:01:46.381Z,27.83
2023-02-12T19:04:17.125Z,25.27
2023-02-12T19:06:47.804Z,27.77
2023-02-12T19:09:20.666Z,25.33
2023-02-12T19:11:50.498Z,25.27
2023-02-12T19:14:21.450Z,23.47
2023-02-12T19:16:50.222Z,22.70
2023-02-12T19:19:21.044Z,25.97
2023-02-12T19:21:49.642Z,23.33
2023-02-12T19:24:19.988Z,25.13
2023-02-12T19:26:52.229Z,25.30
2023-02-12T19:29:20.547Z,25.87
2023-02-12T19:31:49.696Z,21.67
2023-02-12T19:34:20.658Z,21.63
2023-02-12T19:36:50.860Z,20.50
2023-02-12T19:39:22.718Z,20.40
2023-02-12T19:41:52.045Z,23.07
2023-02-12T19:44:23.244Z,29.43
2023-02-12T19:46:52.025Z,27.00
2023-02-12T19:49:23.151Z,31.87
2023-02-12T19:51:51.826Z,31.73
2023-02-12T19:54:24.502Z,34.17
2023-02-12T19:56:53.314Z,29.60
2023-02-12T19:59:24.203Z,29.23
2023-02-12T20:01:52.801Z,28.10
2023-02-12T20:04:24.134Z,29.80
2023-02-12T20:06:53.283Z,30.33
2023-02-12T20:09:23.744Z,35.63
2023-02-12T20:11:53.945Z,35.40
2023-02-12T20:14:22.806Z,31.10
2023-02-12T20:16:52.710Z,32.03
2023-02-12T20:19:25.836Z,33.07
2023-02-12T20:21:57.157Z,34.30
2023-02-12T20:24:28.741Z,35.17
2023-02-12T20:26:59.588Z,32.80
2023-02-12T20:29:28.790Z,30.47
2023-02-12T20:31:58.213Z,31.03
2023-02-12T20:34:27.225Z,29.77
2023-02-12T20:36:55.878Z,41.47
2023-02-12T20:39:28.209Z,34.07
2023-02-12T20:41:56.958Z,38.50
2023-02-12T20:44:25.631Z,35.33
2023-02-12T20:46:57.202Z,31.50
2023-02-12T20:49:26.199Z,31.60
2023-02-12T20:51:56.532Z,40.93
2023-02-12T20:54:25.867Z,33.10
2023-02-12T20:56:56.080Z,32.03
2023-02-12T20:59:24.430Z,30.60
2023-02-12T21:01:53.278Z,32.33
2023-02-12T21:04:21.680Z,32.27
2023-02-12T21:06:52.195Z,33.53
2023-02-12T21:09:20.535Z,34.43
2023-02-12T21:11:50.780Z,34.93
2023-02-12T21:14:23.514Z,34.87
2023-02-12T21:16:54.816Z,34.17
2023-02-12T21:19:24.325Z,32.07
2023-02-12T21:21:53.911Z,29.53
2023-02-12T21:24:25.052Z,27.30
2023-02-12T21:26:55.338Z,21.43
2023-02-12T21:29:26.678Z,23.07
2023-02-12T21:31:55.640Z,25.97
2023-02-12T21:34:24.600Z,27.70
2023-02-12T21:36:55.773Z,21.30
2023-02-12T21:39:27.513Z,21.13
2023-02-12T21:42:01.209Z,18.13
2023-02-12T21:44:32.380Z,20.53
2023-02-12T21:47:00.790Z,20.27
2023-02-12T21:49:29.510Z,21.60
2023-02-12T21:52:02.545Z,28.57
2023-02-12T21:54:31.683Z,37.73
2023-02-12T21:57:00.956Z,22.90
2023-02-12T21:59:32.452Z,21.40
2023-02-12T22:02:01.917Z,17.50
2023-02-12T22:04:30.715Z,21.47
2023-02-12T22:07:03.012Z,17.93
2023-02-12T22:09:31.715Z,16.20
2023-02-12T22:12:00.696Z,17.90
2023-02-12T22:14:29.627Z,22.03
2023-02-12T22:16:59.989Z,17.10
2023-02-12T22:19:28.365Z,20.93
2023-02-12T22:21:57.655Z,33.43
2023-02-12T22:24:26.001Z,27.10
2023-02-12T22:26:56.322Z,22.13
2023-02-12T22:29:24.766Z,45.07
2023-02-12T22:31:53.888Z,18.83
2023-02-12T22:34:23.598Z,39.83
2023-02-12T22:36:52.782Z,23.77
2023-02-12T22:39:22.290Z,24.50
2023-02-12T22:41:51.448Z,18.17
2023-02-12T22:44:21.296Z,18.40
2023-02-12T22:46:50.119Z,22.20
2023-02-12T22:49:19.254Z,22.63
2023-02-12T22:51:48.981Z,20.20
2023-02-12T22:54:19.075Z,17.00
2023-02-12T22:56:51.469Z,23.87
2023-02-12T22:59:20.780Z,20.50
2023-02-12T23:01:49.606Z,18.63
2023-02-12T23:04:19.277Z,19.00
2023-02-12T23:06:49.845Z,18.03
2023-02-12T23:09:20.185Z,19.40
2023-02-12T23:11:49.585Z,29.60
2023-02-12T23:14:19.498Z,41.13
2023-02-12T23:16:48.283Z,19.13
2023-02-12T23:19:16.764Z,27.33
2023-02-12T23:21:45.265Z,44.93
2023-02-12T23:24:16.089Z,21.23
2023-02-12T23:26:44.945Z,31.73
2023-02-12T23:29:13.595Z,27.83
2023-02-12T23:31:43.019Z,99.57
2023-02-12T23:34:12.341Z,41.17
2023-02-12T23:36:43.749Z,22.23
2023-02-12T23:39:16.340Z,21.40
2023-02-12T23:41:44.773Z,35.63
2023-02-12T23:44:14.092Z,21.97
2023-02-12T23:46:43.187Z,22.17
2023-02-12T23:49:11.581Z,28.13
2023-02-12T23:51:39.884Z,20.70
2023-02-12T23:54:08.281Z,24.13
2023-02-12T23:56:38.889Z,22.23
2023-02-12T23:59:07.232Z,22.03
